Time;durP1;ratioP1;P1;durP2;ratioP2;P2;SDS_P1;SDS_P2;PMS_P1;PMS_P2;Temp;Humidity;BMP_temperature;BMP_pressure;BME280_temperature;BME280_humidity;BME280_pressure;Samples;Min_cycle;Max_cycle;Signal;HPM_P1;HPM_P2
2022/06/14 00:01:54;;;;;;;5.15;3.00;;;11.30;99.90;;;;;;4982814;28;20046;-77
2022/06/14 00:04:20;;;;;;;7.68;2.53;;;11.20;99.90;;;;;;4971919;28;20047;-78
2022/06/14 00:06:46;;;;;;;6.95;3.30;;;11.20;99.90;;;;;;4951643;28;20050;-79
2022/06/14 00:09:12;;;;;;;3.50;2.83;;;11.20;99.90;;;;;;4976816;28;20058;-77
2022/06/14 00:11:39;;;;;;;6.88;3.20;;;11.20;99.90;;;;;;4992342;28;20050;-79
2022/06/14 00:14:09;;;;;;;8.38;2.67;;;11.20;99.90;;;;;;4976053;28;20073;-79
2022/06/14 00:16:36;;;;;;;4.15;2.65;;;11.20;99.90;;;;;;4999521;28;20249;-77
2022/06/14 00:19:06;;;;;;;5.13;3.40;;;11.10;99.90;;;;;;5000349;28;20116;-79
2022/06/14 00:21:33;;;;;;;8.27;5.00;;;11.10;99.90;;;;;;4989217;28;20050;-76
2022/06/14 00:24:00;;;;;;;6.13;3.50;;;11.00;99.90;;;;;;4988365;28;20085;-77
2022/06/14 00:26:25;;;;;;;7.93;2.67;;;11.00;99.90;;;;;;4986775;28;20043;-77
2022/06/14 00:28:51;;;;;;;3.88;2.28;;;11.00;99.90;;;;;;4996737;28;20052;-77
2022/06/14 00:31:20;;;;;;;6.20;2.25;;;11.00;99.90;;;;;;4979520;28;20047;-78
2022/06/14 00:33:46;;;;;;;2.72;2.50;;;11.00;99.90;;;;;;4985713;28;20070;-79
2022/06/14 00:36:33;;;;;;;9.48;3.47;;;10.90;99.90;;;;;;4993283;28;20081;-77
2022/06/14 00:39:03;;;;;;;6.13;3.20;;;10.90;99.90;;;;;;4979577;28;20181;-78
2022/06/14 00:41:37;;;;;;;3.50;2.30;;;10.90;99.90;;;;;;5013546;28;20519;-77
2022/06/14 00:44:05;;;;;;;6.70;2.40;;;10.90;99.90;;;;;;4994204;28;20046;-79
2022/06/14 00:47:05;;;;;;;4.32;2.78;;;10.90;99.90;;;;;;4990271;28;20077;-79
2022/06/14 00:49:47;;;;;;;6.10;2.50;;;10.80;99.90;;;;;;4983080;28;20058;-77
2022/06/14 00:52:17;;;;;;;3.70;2.60;;;10.80;99.90;;;;;;4978049;28;20050;-79
2022/06/14 00:54:47;;;;;;;9.90;3.05;;;10.80;99.90;;;;;;4986822;28;20050;-79
2022/06/14 00:57:23;;;;;;;6.40;3.15;;;10.70;99.90;;;;;;4981101;28;20100;-78
2022/06/14 00:59:56;;;;;;;4.65;3.10;;;10.70;99.90;;;;;;4985159;28;20133;-77
2022/06/14 01:02:25;;;;;;;6.93;3.45;;;10.70;99.90;;;;;;4968530;28;20061;-78
2022/06/14 01:04:51;;;;;;;4.40;2.40;;;10.60;99.90;;;;;;4992704;28;20057;-78
2022/06/14 01:07:33;;;;;;;9.30;2.83;;;10.60;99.90;;;;;;4992337;28;20473;-80
2022/06/14 01:10:11;;;;;;;7.15;2.55;;;10.60;99.90;;;;;;4960040;28;20877;-78
2022/06/14 01:12:47;;;;;;;4.90;2.58;;;10.60;99.90;;;;;;4976196;28;20050;-78
2022/06/14 01:15:29;;;;;;;6.10;2.38;;;10.50;99.90;;;;;;4972719;28;20050;-77
2022/06/14 01:18:22;;;;;;;6.47;3.40;;;10.50;99.90;;;;;;4954005;28;20403;-79
2022/06/14 01:20:48;;;;;;;3.22;2.33;;;10.50;99.90;;;;;;4967316;28;20445;-79
2022/06/14 01:23:16;;;;;;;5.18;2.88;;;10.50;99.90;;;;;;4980771;28;20046;-77
2022/06/14 01:26:13;;;;;;;5.32;3.22;;;10.50;99.90;;;;;;4974622;28;20128;-79
2022/06/14 01:28:42;;;;;;;6.78;3.53;;;10.50;99.90;;;;;;4980237;28;20086;-77
2022/06/14 01:31:08;;;;;;;5.65;3.78;;;10.50;99.90;;;;;;4982314;28;20046;-79
2022/06/14 01:33:45;;;;;;;12.73;8.55;;;10.50;99.90;;;;;;4971392;28;20049;-78
2022/06/14 01:36:19;;;;;;;13.45;7.05;;;10.60;99.90;;;;;;4986148;28;20128;-78
2022/06/14 01:38:46;;;;;;;3.53;3.22;;;10.60;99.90;;;;;;4979560;28;20057;-84
2022/06/14 01:41:21;;;;;;;3.33;2.15;;;10.70;99.90;;;;;;4989743;28;20522;-82
2022/06/14 01:44:06;;;;;;;7.38;3.35;;;10.70;99.90;;;;;;5006518;28;20050;-79
2022/06/14 01:46:43;;;;;;;7.40;2.55;;;10.60;99.90;;;;;;4999195;28;20048;-80
2022/06/14 01:52:51;;;;;;;6.75;3.33;;;10.50;99.90;;;;;;4984648;28;20069;-81
2022/06/14 01:55:22;;;;;;;6.03;3.65;;;10.50;99.90;;;;;;4989019;28;20053;-82
2022/06/14 01:58:11;;;;;;;8.32;3.15;;;10.40;99.90;;;;;;4978565;28;20093;-86
2022/06/14 02:00:48;;;;;;;5.30;2.58;;;10.40;99.90;;;;;;4987050;28;20072;-82
2022/06/14 02:06:33;;;;;;;6.55;3.17;;;10.30;99.90;;;;;;4973557;28;20058;-90
2022/06/14 02:09:09;;;;;;;4.70;2.53;;;10.20;99.90;;;;;;4977738;28;20600;-80
2022/06/14 02:11:36;;;;;;;7.32;3.33;;;10.10;99.90;;;;;;4965385;28;20054;-83
2022/06/14 02:14:12;;;;;;;6.03;2.97;;;10.20;99.90;;;;;;4974237;28;20077;-75
2022/06/14 02:16:46;;;;;;;6.18;2.67;;;10.20;99.90;;;;;;4983880;28;20126;-83
2022/06/14 02:19:36;;;;;;;3.80;3.08;;;10.10;99.90;;;;;;4966614;28;20058;-77
2022/06/14 02:22:16;;;;;;;4.50;2.70;;;10.10;99.90;;;;;;4970404;28;20064;-78
2022/06/14 02:24:48;;;;;;;20.95;10.25;;;10.10;99.90;;;;;;4984730;28;20041;-79
2022/06/14 02:27:27;;;;;;;7.50;3.28;;;10.10;99.90;;;;;;4970844;28;20065;-81
2022/06/14 02:30:00;;;;;;;7.28;3.10;;;10.00;99.90;;;;;;4966904;28;20577;-79
2022/06/14 02:32:34;;;;;;;50.30;34.72;;;10.00;99.90;;;;;;4980575;28;20092;-80
2022/06/14 02:35:07;;;;;;;79.15;55.47;;;10.00;99.90;;;;;;4987478;28;20116;-76
2022/06/14 02:37:53;;;;;;;16.58;9.85;;;10.00;99.90;;;;;;4976022;28;20044;-76
2022/06/14 02:40:27;;;;;;;4.75;3.08;;;10.00;99.90;;;;;;4974144;28;20561;-77
2022/06/14 02:43:08;;;;;;;13.55;3.50;;;10.00;99.90;;;;;;4979359;28;20233;-84
2022/06/14 02:46:08;;;;;;;11.98;3.58;;;10.00;99.90;;;;;;4971101;28;20042;-81
2022/06/14 02:48:43;;;;;;;3.53;3.22;;;9.90;99.90;;;;;;4986706;28;20054;-81
2022/06/14 02:51:17;;;;;;;4.63;3.25;;;10.00;99.90;;;;;;4987602;28;20046;-79
2022/06/14 02:54:07;;;;;;;6.78;3.17;;;10.00;99.90;;;;;;4976696;28;20138;-82
2022/06/14 02:56:59;;;;;;;8.85;3.38;;;10.00;99.90;;;;;;4980386;28;20132;-82
2022/06/14 02:59:33;;;;;;;5.50;3.53;;;10.00;99.90;;;;;;4975662;28;20487;-83
2022/06/14 03:02:03;;;;;;;5.38;3.40;;;10.00;99.90;;;;;;4985453;28;20876;-78
2022/06/14 03:04:39;;;;;;;6.22;3.17;;;9.90;99.90;;;;;;4987028;28;20111;-83
2022/06/14 03:07:17;;;;;;;8.20;3.38;;;9.90;99.90;;;;;;4989398;28;20046;-78
2022/06/14 03:09:45;;;;;;;6.82;3.05;;;9.90;99.90;;;;;;4981516;28;20124;-84
2022/06/14 03:12:32;;;;;;;6.57;3.10;;;9.90;99.90;;;;;;4987056;28;20046;-79
2022/06/14 03:15:22;;;;;;;4.45;3.08;;;9.90;99.90;;;;;;4983301;28;20062;-83
2022/06/14 03:18:03;;;;;;;10.57;3.97;;;9.90;99.90;;;;;;4985355;28;20089;-83
2022/06/14 03:21:20;;;;;;;7.28;3.13;;;9.90;99.90;;;;;;4986022;28;20054;-81
2022/06/14 03:24:11;;;;;;;5.20;3.05;;;9.90;99.90;;;;;;4950747;28;20064;-78
2022/06/14 03:26:48;;;;;;;3.90;3.20;;;9.90;99.90;;;;;;4986560;28;20049;-82
2022/06/14 03:29:20;;;;;;;7.13;3.70;;;10.00;99.90;;;;;;4983204;28;20050;-81
2022/06/14 03:32:12;;;;;;;7.32;3.40;;;10.00;99.90;;;;;;4990579;28;20073;-81
2022/06/14 03:35:03;;;;;;;6.55;3.30;;;10.00;99.90;;;;;;4974299;28;20050;-81
2022/06/14 03:37:29;;;;;;;7.95;3.55;;;10.00;99.90;;;;;;4985392;28;20050;-83
2022/06/14 03:40:00;;;;;;;4.55;3.15;;;10.00;99.90;;;;;;4991018;28;20096;-83
2022/06/14 03:42:27;;;;;;;4.20;3.80;;;10.00;99.90;;;;;;4978711;28;20049;-83
2022/06/14 03:44:53;;;;;;;6.82;3.20;;;10.00;99.90;;;;;;4982661;28;20061;-80
2022/06/14 03:47:21;;;;;;;4.22;3.20;;;10.10;99.90;;;;;;4980795;28;20186;-83
2022/06/14 03:49:57;;;;;;;5.70;3.05;;;10.00;99.90;;;;;;4988300;28;20046;-81
2022/06/14 03:53:01;;;;;;;8.00;3.00;;;10.10;99.90;;;;;;4999866;28;20145;-83
2022/06/14 03:55:44;;;;;;;5.35;3.85;;;10.10;99.90;;;;;;4981013;28;20048;-80
2022/06/14 03:58:16;;;;;;;;;;;10.20;99.90;;;;;;4982481;28;20154;-81
2022/06/14 04:00:59;;;;;;;2.45;2.17;;;10.10;99.90;;;;;;4982830;28;20343;-78
2022/06/14 04:03:43;;;;;;;;;;;10.10;99.90;;;;;;4965739;28;20061;-81
2022/06/14 04:06:46;;;;;;;5.75;3.50;;;10.10;99.90;;;;;;4992307;28;20045;-84
2022/06/14 04:09:23;;;;;;;4.97;2.95;;;10.10;99.90;;;;;;4991433;28;20056;-81
2022/06/14 04:12:15;;;;;;;6.10;2.97;;;10.20;99.90;;;;;;4975349;28;20046;-84
2022/06/14 04:15:02;;;;;;;8.88;3.88;;;10.40;99.90;;;;;;4954017;28;20160;-82
2022/06/14 04:17:56;;;;;;;6.22;3.45;;;10.20;99.90;;;;;;4991879;28;20512;-81
2022/06/14 04:20:25;;;;;;;5.65;3.67;;;10.20;99.90;;;;;;4987382;28;20090;-78
2022/06/14 04:23:09;;;;;;;9.10;3.60;;;10.20;99.90;;;;;;4966550;28;20144;-84
2022/06/14 04:25:54;;;;;;;6.47;3.83;;;10.30;99.90;;;;;;4969898;28;20041;-81
2022/06/14 04:28:30;;;;;;;4.15;3.25;;;10.30;99.90;;;;;;4966201;28;20050;-81
2022/06/14 04:31:06;;;;;;;6.97;3.20;;;10.30;99.90;;;;;;4975044;28;20046;-79
2022/06/14 04:33:42;;;;;;;5.72;3.97;;;10.40;99.90;;;;;;4961639;28;20058;-78
2022/06/14 04:36:13;;;;;;;3.83;2.70;;;10.40;99.90;;;;;;4979954;28;20149;-81
2022/06/14 04:38:55;;;;;;;6.07;3.67;;;10.50;99.90;;;;;;4977518;28;20054;-83
2022/06/14 04:41:27;;;;;;;6.80;4.28;;;10.60;99.90;;;;;;4980295;28;20058;-81
2022/06/14 04:44:19;;;;;;;5.43;3.38;;;10.70;99.90;;;;;;4978949;28;20099;-81
2022/06/14 04:47:02;;;;;;;5.22;2.92;;;10.80;99.90;;;;;;4990728;28;20057;-84
2022/06/14 04:49:46;;;;;;;8.77;4.03;;;10.90;99.90;;;;;;4987605;28;20058;-81
2022/06/14 04:52:26;;;;;;;8.07;4.00;;;11.00;99.90;;;;;;4977707;28;20533;-82
2022/06/14 04:55:09;;;;;;;7.03;4.07;;;11.20;99.90;;;;;;4982793;28;20050;-82
2022/06/14 04:57:43;;;;;;;10.75;3.97;;;11.30;99.90;;;;;;4982670;28;20955;-81
2022/06/14 05:00:18;;;;;;;8.57;3.50;;;11.40;99.90;;;;;;4982768;28;20085;-85
2022/06/14 05:02:58;;;;;;;6.18;3.80;;;11.60;99.90;;;;;;4980266;28;20050;-84
2022/06/14 05:05:43;;;;;;;8.30;4.40;;;11.70;99.90;;;;;;4961551;28;20357;-83
2022/06/14 05:08:26;;;;;;;4.60;2.78;;;11.70;99.90;;;;;;4978021;28;20087;-85
2022/06/14 05:10:58;;;;;;;11.70;4.43;;;11.40;99.90;;;;;;4974272;28;20070;-81
2022/06/14 05:13:32;;;;;;;3.92;2.45;;;11.80;99.90;;;;;;4978343;28;20105;-84
2022/06/14 05:16:10;;;;;;;7.38;3.95;;;11.90;99.90;;;;;;4976871;28;20050;-83
2022/06/14 05:19:09;;;;;;;6.80;3.58;;;12.00;99.90;;;;;;4978913;28;20053;-81
2022/06/14 05:21:50;;;;;;;5.43;2.85;;;12.10;99.90;;;;;;4953787;28;20486;-81
2022/06/14 05:24:16;;;;;;;9.65;3.58;;;12.20;99.90;;;;;;4977854;28;20041;-78
2022/06/14 05:26:57;;;;;;;4.43;2.58;;;12.30;99.90;;;;;;4968496;28;20089;-75
2022/06/14 05:29:45;;;;;;;9.88;3.97;;;12.50;99.90;;;;;;4976011;28;20050;-74
2022/06/14 05:32:32;;;;;;;3.88;2.50;;;12.60;99.90;;;;;;4977404;28;20042;-74
2022/06/14 05:35:25;;;;;;;7.50;3.15;;;12.70;99.90;;;;;;4995914;28;20046;-74
2022/06/14 05:38:19;;;;;;;6.57;3.50;;;12.90;99.90;;;;;;4967245;28;20774;-74
2022/06/14 05:41:21;;;;;;;4.65;3.70;;;13.00;99.90;;;;;;4973887;28;20062;-77
2022/06/14 05:44:03;;;;;;;8.88;3.05;;;13.20;99.90;;;;;;4958502;28;20054;-77
2022/06/14 05:46:46;;;;;;;4.03;2.75;;;13.40;99.90;;;;;;4970582;28;20048;-75
2022/06/14 05:49:22;;;;;;;8.00;2.85;;;13.50;99.90;;;;;;4974082;28;20051;-76
2022/06/14 05:52:13;;;;;;;8.15;2.90;;;13.70;99.90;;;;;;4974592;28;20042;-76
2022/06/14 05:54:45;;;;;;;6.15;2.67;;;13.80;99.90;;;;;;4982771;28;20041;-77
2022/06/14 05:57:14;;;;;;;10.80;3.03;;;13.90;99.90;;;;;;4975681;28;20125;-77
2022/06/14 05:59:48;;;;;;;5.40;2.20;;;14.00;99.90;;;;;;4963580;28;20429;-76
2022/06/14 06:02:27;;;;;;;6.00;3.08;;;14.20;99.90;;;;;;4965852;28;20615;-75
2022/06/14 06:04:55;;;;;;;3.90;2.30;;;14.30;99.90;;;;;;4972510;28;20098;-76
2022/06/14 06:07:34;;;;;;;8.27;3.25;;;14.40;99.90;;;;;;4960455;28;20045;-77
2022/06/14 06:10:14;;;;;;;5.07;3.00;;;14.60;99.90;;;;;;4970584;28;20046;-76
2022/06/14 06:12:48;;;;;;;5.72;3.42;;;14.80;99.90;;;;;;4974926;28;20050;-76
2022/06/14 06:15:20;;;;;;;7.20;2.50;;;15.00;99.90;;;;;;4964671;28;20075;-77
2022/06/14 06:17:51;;;;;;;2.33;1.70;;;15.30;99.90;;;;;;4975963;28;20057;-78
2022/06/14 06:20:56;;;;;;;4.32;1.98;;;16.10;99.90;;;;;;4972274;28;20134;-77
2022/06/14 06:23:30;;;;;;;7.85;2.40;;;17.10;99.90;;;;;;4980047;28;20058;-78
2022/06/14 06:25:57;;;;;;;4.93;2.17;;;18.10;99.90;;;;;;4975369;28;20942;-78
2022/06/14 06:28:31;;;;;;;5.82;2.28;;;18.90;99.90;;;;;;4990183;28;20053;-77
2022/06/14 06:31:03;;;;;;;5.53;2.35;;;19.50;99.90;;;;;;4980496;28;20061;-77
2022/06/14 06:33:34;;;;;;;3.85;1.70;;;20.30;99.90;;;;;;4982173;28;20046;-78
2022/06/14 06:36:27;;;;;;;2.80;2.17;;;20.50;99.90;;;;;;4981305;28;20077;-76
2022/06/14 06:39:12;;;;;;;5.00;1.80;;;20.70;99.90;;;;;;4977585;28;20101;-78
2022/06/14 06:41:49;;;;;;;3.70;2.10;;;21.30;99.90;;;;;;4977879;28;20045;-80
2022/06/14 06:44:39;;;;;;;3.30;1.90;;;21.50;99.90;;;;;;4970142;28;20105;-77
2022/06/14 06:47:35;;;;;;;4.45;2.30;;;21.80;99.80;;;;;;4970595;28;20053;-77
2022/06/14 06:50:10;;;;;;;4.88;1.73;;;21.80;93.40;;;;;;4966609;28;20804;-77
2022/06/14 06:52:48;;;;;;;6.88;1.83;;;22.40;96.70;;;;;;4975112;28;20054;-78
2022/06/14 06:55:21;;;;;;;6.72;2.30;;;22.70;95.80;;;;;;4977639;28;20045;-78
2022/06/14 06:57:50;;;;;;;4.13;2.10;;;23.50;95.80;;;;;;4972951;28;20046;-77
2022/06/14 07:00:18;;;;;;;4.05;1.75;;;23.80;95.70;;;;;;4950901;28;20038;-79
2022/06/14 07:03:09;;;;;;;2.97;1.73;;;24.00;93.00;;;;;;4976888;28;20479;-78
2022/06/14 07:05:35;;;;;;;2.80;1.55;;;23.50;92.40;;;;;;4973011;28;20501;-79
2022/06/14 07:08:11;;;;;;;3.90;2.30;;;22.80;94.20;;;;;;4973111;28;20058;-77
2022/06/14 07:10:48;;;;;;;3.83;1.50;;;21.70;93.20;;;;;;4975467;28;20840;-77
2022/06/14 07:14:01;;;;;;;4.88;1.88;;;21.00;94.60;;;;;;4968503;28;20043;-78
2022/06/14 07:16:57;;;;;;;6.40;2.20;;;20.80;92.40;;;;;;4937917;28;20050;-80
2022/06/14 07:19:33;;;;;;;4.68;1.90;;;21.30;93.20;;;;;;4962106;28;20054;-77
2022/06/14 07:22:09;;;;;;;7.55;1.95;;;20.60;94.80;;;;;;4973402;28;20284;-77
2022/06/14 07:25:20;;;;;;;2.45;2.15;;;20.70;93.20;;;;;;4972645;28;20635;-77
2022/06/14 07:27:58;;;;;;;6.13;1.73;;;21.30;91.80;;;;;;4947756;28;20152;-77
2022/06/14 07:30:40;;;;;;;2.78;1.90;;;22.10;93.90;;;;;;4986234;28;20580;-77
2022/06/14 07:33:06;;;;;;;3.00;2.03;;;22.00;91.90;;;;;;4983043;28;20085;-82
2022/06/14 07:36:07;;;;;;;7.97;1.77;;;22.20;93.60;;;;;;4981889;28;20312;-79
2022/06/14 07:39:09;;;;;;;3.45;1.80;;;22.10;91.00;;;;;;4970424;28;20085;-77
2022/06/14 07:42:04;;;;;;;6.95;2.35;;;21.40;91.10;;;;;;4963973;28;20057;-77
2022/06/14 07:44:35;;;;;;;5.65;1.80;;;20.60;91.80;;;;;;4972747;28;20070;-78
2022/06/14 07:47:07;;;;;;;3.90;1.60;;;21.30;92.40;;;;;;4971778;28;20051;-77
2022/06/14 07:50:10;;;;;;;5.10;2.00;;;22.50;92.10;;;;;;4975012;28;20120;-79
2022/06/14 07:52:43;;;;;;;7.80;1.80;;;22.70;86.80;;;;;;4969180;28;20077;-79
2022/06/14 07:55:20;;;;;;;1.65;1.27;;;23.20;87.10;;;;;;4965306;28;20153;-78
2022/06/14 07:57:48;;;;;;;4.70;2.00;;;22.40;89.70;;;;;;4974198;28;20776;-78
2022/06/14 08:03:09;;;;;;;4.90;2.00;;;21.80;90.90;;;;;;4987238;28;20058;-78
2022/06/14 08:05:38;;;;;;;3.20;1.15;;;22.10;87.30;;;;;;4974492;28;20042;-78
2022/06/14 08:08:07;;;;;;;2.78;1.20;;;21.70;90.10;;;;;;4981171;28;20121;-78
2022/06/14 08:10:42;;;;;;;1.73;1.52;;;20.90;90.20;;;;;;4978668;28;20085;-78
2022/06/14 08:13:16;;;;;;;2.55;1.58;;;20.40;90.80;;;;;;4972093;28;20038;-78
2022/06/14 08:15:49;;;;;;;9.20;2.50;;;20.10;91.00;;;;;;4981224;28;20132;-77
2022/06/14 08:18:30;;;;;;;3.13;1.10;;;20.50;90.40;;;;;;4983679;28;20037;-78
2022/06/14 08:21:33;;;;;;;2.60;1.27;;;21.40;90.20;;;;;;4974365;28;20053;-79
2022/06/14 08:24:06;;;;;;;3.67;1.40;;;22.30;86.80;;;;;;4967607;28;20817;-78
2022/06/14 08:26:55;;;;;;;2.13;1.63;;;23.10;87.00;;;;;;4961017;28;20054;-78
2022/06/14 08:29:47;;;;;;;2.35;1.98;;;23.60;84.20;;;;;;4982313;28;20042;-79
2022/06/14 08:32:39;;;;;;;2.17;1.65;;;23.10;84.70;;;;;;4948829;28;20968;-77
2022/06/14 08:35:38;;;;;;;2.72;1.58;;;23.10;85.50;;;;;;4979303;28;20034;-78
2022/06/14 08:38:25;;;;;;;4.47;1.60;;;22.50;86.80;;;;;;4964849;28;20062;-79
2022/06/14 08:41:27;;;;;;;3.58;1.40;;;23.30;82.90;;;;;;4980838;28;20042;-79
2022/06/14 08:43:59;;;;;;;1.98;1.27;;;24.00;78.30;;;;;;4944286;28;20062;-80
2022/06/14 08:46:42;;;;;;;3.00;1.25;;;24.60;82.60;;;;;;4954529;28;20054;-79
2022/06/14 08:49:31;;;;;;;4.00;1.50;;;24.90;80.40;;;;;;4991163;28;20056;-80
2022/06/14 08:52:41;;;;;;;3.28;1.50;;;24.30;82.60;;;;;;4985865;28;20050;-78
2022/06/14 08:55:29;;;;;;;3.15;1.63;;;23.60;80.40;;;;;;4977966;28;20042;-80
2022/06/14 08:58:12;;;;;;;2.20;1.23;;;23.30;80.10;;;;;;4970733;28;20089;-79
2022/06/14 09:00:40;;;;;;;;;;;22.90;80.30;;;;;;4974396;28;20167;-80
2022/06/14 09:03:44;;;;;;;2.17;1.20;;;22.50;82.60;;;;;;4969312;28;20063;-79
2022/06/14 09:06:28;;;;;;;;;;;22.20;81.10;;;;;;4979328;28;20057;-79
2022/06/14 09:09:15;;;;;;;2.10;1.38;;;21.60;80.90;;;;;;4962009;28;19930;-78
2022/06/14 09:11:59;;;;;;;2.67;1.30;;;21.50;85.10;;;;;;4976718;28;20103;-78
2022/06/14 09:14:45;;;;;;;2.92;1.35;;;21.50;82.20;;;;;;4978058;28;20058;-78
2022/06/14 09:17:30;;;;;;;3.78;1.33;;;21.80;84.30;;;;;;4968106;28;20542;-79
2022/06/14 09:19:55;;;;;;;3.50;1.33;;;23.20;82.30;;;;;;4956928;28;20600;-79
2022/06/14 09:22:43;;;;;;;2.80;1.35;;;24.00;83.70;;;;;;4972297;28;20118;-79
2022/06/14 09:25:31;;;;;;;2.58;1.35;;;24.70;80.90;;;;;;4976188;28;20132;-79
2022/06/14 09:28:20;;;;;;;5.05;2.28;;;25.10;82.20;;;;;;4983183;28;20057;-78
2022/06/14 09:31:03;;;;;;;3.03;1.30;;;24.10;79.00;;;;;;4968235;28;20057;-78
2022/06/14 09:33:29;;;;;;;3.08;1.75;;;22.80;77.80;;;;;;4989919;28;20046;-78
2022/06/14 09:35:57;;;;;;;1.95;1.40;;;22.00;83.10;;;;;;4987053;28;20057;-80
2022/06/14 09:38:29;;;;;;;1.90;1.40;;;21.70;83.00;;;;;;4983522;28;20048;-78
2022/06/14 09:41:11;;;;;;;3.90;1.75;;;21.40;84.90;;;;;;4982501;28;20104;-79
2022/06/14 09:44:04;;;;;;;1.80;1.27;;;22.10;84.30;;;;;;4972172;28;20090;-78
2022/06/14 09:47:00;;;;;;;4.35;1.73;;;22.30;84.50;;;;;;4986813;28;20046;-79
2022/06/14 09:49:47;;;;;;;4.97;1.55;;;22.20;84.70;;;;;;4986064;28;20674;-78
2022/06/14 09:52:46;;;;;;;3.28;1.73;;;22.80;82.70;;;;;;4990884;28;20042;-79
2022/06/14 09:55:42;;;;;;;3.65;1.10;;;23.90;82.30;;;;;;4972999;28;20082;-81
2022/06/14 09:58:47;;;;;;;1.48;1.23;;;24.00;78.20;;;;;;4982292;28;20056;-82
2022/06/14 10:01:28;;;;;;;1.58;1.15;;;23.70;80.70;;;;;;4958105;28;20065;-78
2022/06/14 10:04:35;;;;;;;1.33;1.17;;;23.10;80.50;;;;;;4978261;28;20161;-77
2022/06/14 10:07:23;;;;;;;4.30;1.70;;;22.80;81.00;;;;;;4966810;28;20409;-82
2022/06/14 10:09:57;;;;;;;2.90;1.60;;;22.60;82.30;;;;;;4974199;28;20121;-81
2022/06/14 10:13:00;;;;;;;1.67;1.25;;;22.30;83.30;;;;;;4989304;28;20061;-75
2022/06/14 10:15:29;;;;;;;3.88;1.58;;;22.10;83.00;;;;;;4996721;28;20061;-77
2022/06/14 10:17:55;;;;;;;3.30;1.20;;;21.90;84.00;;;;;;5003102;28;20058;-76
2022/06/14 10:20:44;;;;;;;3.05;1.30;;;22.10;84.90;;;;;;5002534;28;20042;-79
2022/06/14 10:23:38;;;;;;;3.70;1.30;;;22.20;81.90;;;;;;5002860;28;20034;-81
2022/06/14 10:29:33;;;;;;;3.67;1.38;;;21.90;83.50;;;;;;4980251;28;20061;-80
2022/06/14 10:32:23;;;;;;;3.55;1.20;;;21.70;82.40;;;;;;4972366;28;20065;-79
2022/06/14 10:34:51;;;;;;;1.88;1.30;;;21.40;81.30;;;;;;4974803;28;20060;-81
2022/06/14 10:37:54;;;;;;;2.25;1.67;;;21.20;83.20;;;;;;4982237;28;20054;-79
2022/06/14 10:40:41;;;;;;;4.10;1.60;;;21.00;79.70;;;;;;4970822;28;20054;-71
2022/06/14 10:43:26;;;;;;;4.15;1.27;;;20.90;82.90;;;;;;4981718;28;20057;-76
2022/06/14 10:45:57;;;;;;;1.27;1.05;;;20.80;82.30;;;;;;4974283;28;20054;-76
2022/06/14 10:48:46;;;;;;;1.30;1.10;;;20.90;84.20;;;;;;4983499;28;21403;-75
2022/06/14 10:51:35;;;;;;;2.47;1.27;;;21.00;85.30;;;;;;4978668;28;20042;-79
2022/06/14 10:54:16;;;;;;;4.00;1.50;;;21.10;85.30;;;;;;4957821;28;20046;-76
2022/06/14 10:57:05;;;;;;;3.50;1.00;;;21.10;82.20;;;;;;4966619;28;20473;-76
2022/06/14 11:00:02;;;;;;;1.92;1.55;;;20.70;84.30;;;;;;4965747;28;20082;-73
2022/06/14 11:02:57;;;;;;;1.67;1.08;;;21.20;85.10;;;;;;4970030;28;20057;-76
2022/06/14 11:05:32;;;;;;;1.50;1.15;;;21.40;83.80;;;;;;4962633;28;20243;-75
2022/06/14 11:08:12;;;;;;;5.82;1.60;;;21.70;83.70;;;;;;4969426;28;20053;-76
2022/06/14 11:10:53;;;;;;;2.00;1.50;;;21.90;82.10;;;;;;4950837;28;20092;-76
2022/06/14 11:14:12;;;;;;;2.15;1.08;;;21.80;83.40;;;;;;4986220;28;20045;-76
2022/06/14 11:16:47;;;;;;;2.13;0.90;;;22.00;84.50;;;;;;4960568;28;20506;-76
2022/06/14 11:21:58;;;;;;;2.60;1.20;;;22.40;84.80;;;;;;4974046;28;20971;-75
2022/06/14 11:24:47;;;;;;;1.42;1.02;;;22.40;80.80;;;;;;4987130;28;20127;-77
2022/06/14 11:27:13;;;;;;;2.03;1.58;;;22.50;83.40;;;;;;4963759;28;20054;-76
2022/06/14 11:30:19;;;;;;;2.00;1.58;;;22.30;83.20;;;;;;4989717;28;20939;-75
2022/06/14 11:33:06;;;;;;;20.48;16.60;;;22.00;80.40;;;;;;4979320;28;20166;-81
2022/06/14 11:35:49;;;;;;;72.38;55.50;;;21.80;85.50;;;;;;4977839;28;20508;-78
2022/06/14 11:38:22;;;;;;;9.75;8.05;;;21.80;84.00;;;;;;4992969;28;20062;-77
2022/06/14 11:40:53;;;;;;;2.75;2.55;;;21.80;85.60;;;;;;4995456;28;20053;-79
2022/06/14 11:43:34;;;;;;;1.85;1.40;;;21.50;85.20;;;;;;4968698;28;20282;-76
2022/06/14 11:46:25;;;;;;;3.78;2.10;;;21.10;85.90;;;;;;5002917;28;20293;-77
2022/06/14 11:49:29;;;;;;;2.35;1.52;;;20.90;84.60;;;;;;5002805;28;20041;-77
2022/06/14 11:52:26;;;;;;;1.45;1.25;;;20.80;86.10;;;;;;4977445;28;20085;-78
2022/06/14 11:55:10;;;;;;;2.88;1.23;;;20.70;85.20;;;;;;5003019;28;20069;-76
2022/06/14 11:58:13;;;;;;;3.75;2.88;;;20.60;86.30;;;;;;5004164;28;20066;-76
2022/06/14 12:01:06;;;;;;;5.47;1.23;;;20.60;86.40;;;;;;5000968;28;20058;-76
2022/06/14 12:04:10;;;;;;;2.47;1.10;;;20.70;86.20;;;;;;5009630;28;20061;-75
2022/06/14 12:06:48;;;;;;;2.03;1.75;;;21.00;86.70;;;;;;5006036;28;20045;-77
2022/06/14 12:09:33;;;;;;;1.58;1.40;;;21.20;86.30;;;;;;5002730;28;20042;-76
2022/06/14 12:12:34;;;;;;;8.13;5.60;;;21.10;83.70;;;;;;5000252;28;20049;-76
2022/06/14 12:15:08;;;;;;;5.35;3.33;;;21.10;85.40;;;;;;5000285;28;20083;-76
2022/06/14 12:17:36;;;;;;;13.55;9.43;;;21.00;84.20;;;;;;5003863;28;20057;-76
2022/06/14 12:20:10;;;;;;;3.45;2.72;;;21.30;85.80;;;;;;5001994;28;20054;-76
2022/06/14 12:22:53;;;;;;;2.75;1.80;;;22.00;86.10;;;;;;5000391;28;20049;-76
2022/06/14 12:28:24;;;;;;;8.88;6.03;;;22.00;84.40;;;;;;5006497;28;20041;-74
2022/06/14 12:30:56;;;;;;;4.40;2.45;;;22.30;84.80;;;;;;5004328;28;20244;-76
2022/06/14 12:33:29;;;;;;;4.72;2.33;;;21.90;85.90;;;;;;5005648;28;20055;-78
2022/06/14 12:36:18;;;;;;;5.45;2.13;;;21.60;87.30;;;;;;5007268;28;20528;-77
2022/06/14 12:38:46;;;;;;;2.67;1.88;;;20.90;85.10;;;;;;4993980;28;20058;-74
2022/06/14 12:41:27;;;;;;;4.47;2.95;;;20.80;87.80;;;;;;4987581;28;20070;-77
2022/06/14 12:44:13;;;;;;;15.45;13.35;;;21.00;88.70;;;;;;4995050;28;20058;-75
2022/06/14 12:46:44;;;;;;;2.17;1.83;;;21.00;88.40;;;;;;5000526;28;20065;-75
2022/06/14 12:49:24;;;;;;;8.52;4.18;;;21.50;89.20;;;;;;5005058;28;20468;-76
2022/06/14 12:51:57;;;;;;;4.68;3.67;;;21.60;88.50;;;;;;5004930;28;20329;-76
2022/06/14 12:54:28;;;;;;;;;;;21.80;86.10;;;;;;5009423;28;20106;-76
2022/06/14 12:56:59;;;;;;;4.90;2.00;;;21.70;86.10;;;;;;4996724;28;19928;-76
2022/06/14 12:59:43;;;;;;;4.65;2.38;;;21.70;86.50;;;;;;5004098;28;20049;-76
2022/06/14 13:02:18;;;;;;;2.00;1.45;;;21.80;87.00;;;;;;5007863;28;20079;-76
2022/06/14 13:04:50;;;;;;;2.15;1.73;;;21.60;85.60;;;;;;5003306;28;20046;-74
2022/06/14 13:07:54;;;;;;;2.15;1.55;;;21.50;86.80;;;;;;5001862;28;20057;-76
2022/06/14 13:10:50;;;;;;;1.48;1.38;;;21.30;86.20;;;;;;5008821;28;20045;-76
2022/06/14 13:13:18;;;;;;;2.00;1.55;;;21.20;88.70;;;;;;5007365;28;20034;-76
2022/06/14 13:16:21;;;;;;;5.68;3.50;;;21.10;88.10;;;;;;4994023;28;20061;-75
2022/06/14 13:19:07;;;;;;;7.10;6.03;;;20.90;87.00;;;;;;4998348;28;20050;-71
2022/06/14 13:21:47;;;;;;;3.42;2.10;;;20.90;88.50;;;;;;4982309;28;20058;-73
2022/06/14 13:24:36;;;;;;;3.40;1.50;;;20.90;87.90;;;;;;5000300;28;20401;-76
2022/06/14 13:27:31;;;;;;;3.70;1.88;;;21.00;88.20;;;;;;4993533;28;20046;-77
2022/06/14 13:30:14;;;;;;;4.40;1.92;;;21.00;88.40;;;;;;4996040;28;20267;-76
2022/06/14 13:32:52;;;;;;;2.17;1.45;;;21.00;87.30;;;;;;4993304;28;20050;-75
2022/06/14 13:35:33;;;;;;;3.10;1.88;;;21.10;88.10;;;;;;4988119;28;20046;-74
2022/06/14 13:38:12;;;;;;;2.53;1.88;;;21.10;88.80;;;;;;4989532;28;20138;-74
2022/06/14 13:41:03;;;;;;;2.35;2.05;;;21.00;88.00;;;;;;4989390;28;20394;-75
2022/06/14 13:43:44;;;;;;;1.70;1.40;;;21.10;88.20;;;;;;4964574;28;20058;-76
2022/06/14 13:46:34;;;;;;;3.20;1.50;;;21.30;88.00;;;;;;4998925;28;20117;-75
2022/06/14 13:49:15;;;;;;;10.52;1.98;;;21.40;87.50;;;;;;4994907;28;20328;-75
2022/06/14 13:52:23;;;;;;;50.47;29.73;;;21.50;87.70;;;;;;4975217;28;20054;-72
2022/06/14 13:55:12;;;;;;;6.38;3.05;;;21.70;87.60;;;;;;4906438;29;20044;-72
2022/06/14 13:57:49;;;;;;;6.38;2.45;;;21.80;89.10;;;;;;4912511;29;20585;-72
2022/06/14 14:00:24;;;;;;;2.28;1.70;;;21.70;87.00;;;;;;4966250;28;20223;-73
2022/06/14 14:03:20;;;;;;;2.28;1.60;;;21.60;86.50;;;;;;4984574;28;20038;-72
2022/06/14 14:06:08;;;;;;;1.50;1.40;;;21.60;86.10;;;;;;4980423;28;20053;-72
2022/06/14 14:08:51;;;;;;;3.50;2.03;;;21.50;86.90;;;;;;4990415;28;20368;-74
2022/06/14 14:11:23;;;;;;;;;;;21.40;84.80;;;;;;4983414;28;20535;-72
2022/06/14 14:13:58;;;;;;;1.52;1.40;;;21.40;85.20;;;;;;4987360;28;19922;-73
2022/06/14 14:16:37;;;;;;;3.22;1.35;;;21.50;85.70;;;;;;4992744;28;20054;-72
2022/06/14 14:19:31;;;;;;;2.05;1.45;;;21.50;84.90;;;;;;4988520;28;20046;-72